Here is the Quick Look data you requested

The Data originates at the National Weather Service, and is made available here by the UAlbany Department of Atmospheric and Environmental Sciences

Surface Observations

KBKW 220551Z AUTO 21004KT 10SM FEW023 BKN080 22/19 A3006 RMK AO2 SLP138 60002
 T02170194 10222 20206 50002=
KBLF 220552Z AUTO 19003KT 10SM BKN032 OVC050 21/19 A3009 RMK AO2 RAB15E46
 SLP148 P0010 60010 T02110194 10239 20206 50000=
KCKB 220553Z AUTO 14003KT 10SM BKN090 23/19 A2995 RMK AO2 LTG DSNT S SLP122
 T02280194 10256 20228 58009=
KCRW 220554Z 19005KT 10SM SCT050 BKN100 23/21 A2996 RMK AO2 SLP131 60003
 T02280211 10256 20217 58002 $=
KEKN 220551Z AUTO 00000KT 10SM BKN032 BKN048 OVC060 20/18 A3001 RMK AO2 SLP147
 T02000183 10211 20194 58006 TSNO $=
KHLG 220553Z AUTO 16004KT 10SM CLR 23/22 A2991 RMK AO2 LTG DSNT NW SLP118 60007
 T02280217 10250 20222 58015=
KHTS 220551Z 19004KT 10SM FEW060 SCT075 23/21 A2994 RMK AO2 SLP129 60000
 T02280211 10272 20228 58002=
KLWB 220550Z AUTO 00000KT 7SM SCT041 SCT050 BKN075 19/19 A3006 RMK AO2
 T01870185 10220 20186=
KMGW 220553Z AUTO 19005KT 10SM OVC043 24/19 A2995 RMK AO2 SLP128 T02390189
 10267 20233 58005=
KMRB 220553Z AUTO 22003KT 10SM CLR 22/21 A2989 RMK AO2 SLP116 60010 T02220206
 10244 20222 58002=
KPKB 220553Z AUTO 21005KT 10SM SCT033 23/21 A2995 RMK AO2 SLP133 T02280206
 10261 20228 55006=
KUNI 220555Z AUTO 19004KT 10SM SCT036 23/23 A2991 RMK AO2 LTG DSNT NE T02270227
 10257 20227 PWINO=
KW99 220555Z AUTO 00000KT 10SM CLR 20/20 A2996 RMK AO2 T02020198 10217 20202
 403460202=